Terminal Aerodrome Forecast
Issued by NWS Paducah, KY

Home | Current Version | Previous Version | Text Only | Print | Product List | Glossary On
Versions: 1 2 3 4 5 6 7 8 9 10 11 12 13 14 15 16 17 18 19
000
FTUS43 KPAH 230200 AAA
TAFEVV
TAF AMD
KEVV 230227Z 2302/2324 VRB02KT P6SM VCTS BKN050CB BKN150
     FM230600 VRB02KT P6SM BKN035 BKN080
     FM231400 VRB03KT P6SM VCSH SCT050 BKN090=

USA.gov is the U.S. government's official web portal to all federal, state and local government web resources and services.